Arrow — CRXN — position and weather

sailwx.info

Track history (hours):
 
Tides and Currents Weather Stations Pressure Air Temp Water Temp Dewpoint Dewpoint Depression Visibility Wind Speed Wind Dir Waves Ship Positions

Arrow

Last reported at 2016-Feb-08 01:32 UTC. Time now 2016-Feb-11 13:07 UTC.
Position N 36°24' E 013°42'.

Length 126 m; draft 8.2 m.

Type: Cargo ship. MMSI: 255797000.

Date/timePositionNaut miles runAvg speedWind from/ knotsBaromVisibWave heightAir tempDewpointWater temp
2016-Feb-08 01:32N 36°24' E 013°42'1010.4
2016-Feb-08 00:33N 36°20' E 013°54'1110.6
2016-Feb-07 23:33N 36°15' E 014°06'1110.7
2016-Feb-07 22:33N 36°10' E 014°18'1010.0
2016-Feb-07 21:33N 36°03' E 014°25'3 2.6
2016-Feb-07 20:32N 36°00' E 014°26'0 0.0
2016-Feb-07 19:32N 36°00' E 014°26'0 0.0
2016-Feb-07 18:32N 36°00' E 014°26'0 0.0
2016-Feb-07 17:32N 36°00' E 014°26'0 0.0
2016-Feb-07 16:32N 36°00' E 014°26'1 0.7
2016-Feb-07 15:33N 36°00' E 014°27'9 8.6
2016-Feb-07 14:33N 36°03' E 014°37'  
2016-Feb-04 23:33N 45°18' E 013°01'37 4.6
2016-Feb-04 15:30N 45°47' E 013°33'42 1.4
2016-Feb-03 09:33N 45°19' E 012°49'1212.1
2016-Feb-03 08:33N 45°15' E 012°33'1110.7
2016-Feb-03 07:34N 45°14' E 012°17'2 1.7
2016-Feb-03 06:31N 45°13' E 012°16'0 0.0
2016-Feb-03 05:31N 45°13' E 012°16'0 0.0
2016-Feb-03 04:31N 45°13' E 012°16'0 0.0
2016-Feb-03 03:31N 45°13' E 012°16'0 0.0
2016-Feb-03 02:31N 45°13' E 012°16'0 0.0
2016-Feb-03 01:31N 45°13' E 012°16'0 0.0
2016-Feb-03 00:28N 45°13' E 012°16'0 0.0
2016-Feb-02 23:31N 45°13' E 012°16'0 0.0
2016-Feb-02 22:31N 45°13' E 012°16'0 0.0
2016-Feb-02 21:31N 45°13' E 012°16'0 0.0
2016-Feb-02 20:31N 45°13' E 012°16'0 0.0
2016-Feb-02 19:31N 45°13' E 012°16'0 0.0
2016-Feb-02 18:28N 45°13' E 012°16'0 0.0
2016-Feb-02 17:31N 45°13' E 012°16'0 0.0
2016-Feb-02 16:31N 45°13' E 012°16'0 0.0
2016-Feb-02 15:31N 45°13' E 012°16'0 0.0
2016-Feb-02 14:31N 45°13' E 012°16'0 0.0
2016-Feb-02 13:31N 45°13' E 012°16'0 0.0
2016-Feb-02 12:28N 45°13' E 012°16'0 0.0
2016-Feb-02 11:31N 45°13' E 012°16'0 0.0
2016-Feb-02 10:31N 45°13' E 012°16'0 0.0
2016-Feb-02 09:31N 45°13' E 012°16'0 0.0
2016-Feb-02 08:31N 45°13' E 012°16'0 0.0
2016-Feb-02 00:31N 45°13' E 012°16'0 0.0
2016-Feb-01 23:31N 45°13' E 012°16'0 0.0
2016-Feb-01 22:31N 45°13' E 012°16'0 0.0
2016-Feb-01 21:31N 45°13' E 012°16'0 0.0
2016-Feb-01 20:28N 45°13' E 012°16'0 0.0
2016-Feb-01 19:31N 45°13' E 012°16'0 0.0
2016-Feb-01 18:31N 45°13' E 012°16'0 0.0
2016-Feb-01 17:31N 45°13' E 012°16'0 0.0
2016-Feb-01 16:31N 45°13' E 012°16'0 0.0
2016-Feb-01 15:31N 45°13' E 012°16'0 0.0
2016-Feb-01 14:31N 45°13' E 012°16'0 0.0
2016-Feb-01 13:31N 45°13' E 012°16'0 0.0
2016-Feb-01 12:28N 45°13' E 012°16'0 0.0
2016-Feb-01 11:28N 45°13' E 012°16'0 0.0
2016-Feb-01 10:31N 45°13' E 012°16'0 0.0
2016-Feb-01 09:31N 45°13' E 012°16'0 0.0
2016-Feb-01 08:31N 45°13' E 012°16'0 0.0
2016-Feb-01 07:31N 45°13' E 012°16'0 0.0
2016-Feb-01 06:31N 45°13' E 012°16'0 0.0
2016-Feb-01 05:28N 45°13' E 012°16'0 0.0
2016-Feb-01 04:31N 45°13' E 012°16'0 0.0
2016-Feb-01 03:31N 45°13' E 012°16'0 0.0
2016-Feb-01 02:31N 45°13' E 012°16'0 0.0
2016-Feb-01 01:31N 45°13' E 012°16'0 0.0
2016-Feb-01 00:31N 45°13' E 012°16'0 0.0
2016-Jan-31 23:31N 45°13' E 012°16'0 0.0
2016-Jan-31 22:25N 45°13' E 012°16'0 0.0
2016-Jan-31 21:31N 45°13' E 012°16'0 0.0
2016-Jan-31 20:31N 45°13' E 012°16'0 0.0
2016-Jan-31 19:31N 45°13' E 012°16'0 0.0
2016-Jan-31 18:31N 45°13' E 012°16'0 0.0
2016-Jan-31 17:31N 45°13' E 012°16'0 0.0
2016-Jan-31 16:31N 45°13' E 012°16'0 0.0
2016-Jan-31 15:31N 45°13' E 012°16'0 0.0
2016-Jan-31 14:31N 45°13' E 012°16'0 0.0
2016-Jan-31 13:22N 45°13' E 012°16'0 0.0
2016-Jan-31 12:31N 45°13' E 012°16'0 0.0
2016-Jan-31 11:28N 45°13' E 012°16'0 0.0
2016-Jan-31 10:31N 45°13' E 012°16'0 0.0
2016-Jan-31 09:31N 45°13' E 012°16'0 0.0
2016-Jan-30 22:16N 45°13' E 012°16'0 0.0
2016-Jan-30 21:31N 45°13' E 012°16'0 0.0
2016-Jan-30 20:31N 45°13' E 012°16'0 0.0
2016-Jan-30 19:31N 45°13' E 012°16'0 0.0
2016-Jan-30 18:31N 45°13' E 012°16'0 0.0
2016-Jan-30 17:31N 45°13' E 012°16'0 0.0
2016-Jan-30 16:31N 45°13' E 012°16'0 0.0
2016-Jan-30 15:28N 45°13' E 012°16'0 0.0
2016-Jan-30 14:31N 45°13' E 012°16'0 0.0
2016-Jan-30 13:31N 45°13' E 012°16'0 0.0
2016-Jan-30 12:31N 45°13' E 012°16'0 0.0
2016-Jan-30 11:31N 45°13' E 012°16'0 0.0
2016-Jan-30 10:25N 45°13' E 012°16'0 0.0
2016-Jan-30 09:31N 45°13' E 012°16'0 0.0
2016-Jan-30 08:31N 45°13' E 012°16'0 0.0
2016-Jan-30 07:31N 45°13' E 012°16'0 0.0
2016-Jan-30 06:31N 45°13' E 012°16'0 0.0
2016-Jan-30 05:28N 45°13' E 012°16'0 0.0
2016-Jan-30 04:31N 45°13' E 012°16'0 0.0
2016-Jan-30 03:31N 45°13' E 012°16'0 0.0
2016-Jan-30 02:31N 45°13' E 012°16'0 0.0
2016-Jan-30 01:31N 45°13' E 012°16'0 0.0
2016-Jan-30 00:28N 45°13' E 012°16'0 0.0
2016-Jan-29 23:25N 45°13' E 012°16'0 0.0
2016-Jan-29 22:31N 45°13' E 012°16'0 0.0
2016-Jan-29 21:31N 45°13' E 012°16'0 0.0
2016-Jan-29 20:31N 45°13' E 012°16'0 0.0
2016-Jan-29 19:28N 45°13' E 012°16'0 0.0
2016-Jan-29 18:31N 45°13' E 012°16'0 0.0
2016-Jan-29 17:31N 45°13' E 012°16'0 0.0
2016-Jan-29 16:31N 45°13' E 012°16'3 2.7
2016-Jan-29 15:33N 45°14' E 012°19'3 2.7
2016-Jan-29 14:28N 45°15' E 012°23'0 0.0
2016-Jan-29 13:31N 45°15' E 012°23'0 0.0
2016-Jan-29 12:31N 45°15' E 012°23'0 0.0
2016-Jan-29 11:31N 45°15' E 012°23'0 0.0
2016-Jan-29 10:31N 45°15' E 012°23'0 0.0
2016-Jan-29 09:31N 45°15' E 012°23'0 0.0
2016-Jan-29 08:28N 45°15' E 012°23'0 0.0
2016-Jan-29 07:31N 45°15' E 012°23'0 0.0
2016-Jan-29 06:31N 45°15' E 012°23'0 0.0
2016-Jan-29 05:31N 45°15' E 012°23'0 0.0
2016-Jan-29 04:31N 45°15' E 012°23'0 0.0
2016-Jan-29 03:28N 45°15' E 012°23'0 0.0
2016-Jan-29 02:28N 45°15' E 012°23'  
Track history (hours):
 
Tides and Currents Weather Stations Pressure Air Temp Water Temp Dewpoint Dewpoint Depression Visibility Wind Speed Wind Dir Waves Ship Positions

Arrow

Last reported at 2016-Feb-08 01:32 UTC. Time now 2016-Feb-11 13:07 UTC.
Position N 36°24' E 013°42'.

Length 126 m; draft 8.2 m.

Type: Cargo ship. MMSI: 255797000.

Date/timePositionNaut miles runAvg speedWind from/ knotsBaromVisibWave heightAir tempDewpointWater temp
2016-Feb-08 01:32N 36°24' E 013°42'1010.4
2016-Feb-08 00:33N 36°20' E 013°54'1110.6
2016-Feb-07 23:33N 36°15' E 014°06'1110.7
2016-Feb-07 22:33N 36°10' E 014°18'1010.0
2016-Feb-07 21:33N 36°03' E 014°25'3 2.6
2016-Feb-07 20:32N 36°00' E 014°26'0 0.0
2016-Feb-07 19:32N 36°00' E 014°26'0 0.0
2016-Feb-07 18:32N 36°00' E 014°26'0 0.0
2016-Feb-07 17:32N 36°00' E 014°26'0 0.0
2016-Feb-07 16:32N 36°00' E 014°26'1 0.7
2016-Feb-07 15:33N 36°00' E 014°27'9 8.6
2016-Feb-07 14:33N 36°03' E 014°37'  
2016-Feb-04 23:33N 45°18' E 013°01'37 4.6
2016-Feb-04 15:30N 45°47' E 013°33'42 1.4
2016-Feb-03 09:33N 45°19' E 012°49'1212.1
2016-Feb-03 08:33N 45°15' E 012°33'1110.7
2016-Feb-03 07:34N 45°14' E 012°17'2 1.7
2016-Feb-03 06:31N 45°13' E 012°16'0 0.0
2016-Feb-03 05:31N 45°13' E 012°16'0 0.0
2016-Feb-03 04:31N 45°13' E 012°16'0 0.0
2016-Feb-03 03:31N 45°13' E 012°16'0 0.0
2016-Feb-03 02:31N 45°13' E 012°16'0 0.0
2016-Feb-03 01:31N 45°13' E 012°16'0 0.0
2016-Feb-03 00:28N 45°13' E 012°16'0 0.0
2016-Feb-02 23:31N 45°13' E 012°16'0 0.0
2016-Feb-02 22:31N 45°13' E 012°16'0 0.0
2016-Feb-02 21:31N 45°13' E 012°16'0 0.0
2016-Feb-02 20:31N 45°13' E 012°16'0 0.0
2016-Feb-02 19:31N 45°13' E 012°16'0 0.0
2016-Feb-02 18:28N 45°13' E 012°16'0 0.0
2016-Feb-02 17:31N 45°13' E 012°16'0 0.0
2016-Feb-02 16:31N 45°13' E 012°16'0 0.0
2016-Feb-02 15:31N 45°13' E 012°16'0 0.0
2016-Feb-02 14:31N 45°13' E 012°16'0 0.0
2016-Feb-02 13:31N 45°13' E 012°16'0 0.0
2016-Feb-02 12:28N 45°13' E 012°16'0 0.0
2016-Feb-02 11:31N 45°13' E 012°16'0 0.0
2016-Feb-02 10:31N 45°13' E 012°16'0 0.0
2016-Feb-02 09:31N 45°13' E 012°16'0 0.0
2016-Feb-02 08:31N 45°13' E 012°16'0 0.0
2016-Feb-02 00:31N 45°13' E 012°16'0 0.0
2016-Feb-01 23:31N 45°13' E 012°16'0 0.0
2016-Feb-01 22:31N 45°13' E 012°16'0 0.0
2016-Feb-01 21:31N 45°13' E 012°16'0 0.0
2016-Feb-01 20:28N 45°13' E 012°16'0 0.0
2016-Feb-01 19:31N 45°13' E 012°16'0 0.0
2016-Feb-01 18:31N 45°13' E 012°16'0 0.0
2016-Feb-01 17:31N 45°13' E 012°16'0 0.0
2016-Feb-01 16:31N 45°13' E 012°16'0 0.0
2016-Feb-01 15:31N 45°13' E 012°16'0 0.0
2016-Feb-01 14:31N 45°13' E 012°16'0 0.0
2016-Feb-01 13:31N 45°13' E 012°16'0 0.0
2016-Feb-01 12:28N 45°13' E 012°16'0 0.0
2016-Feb-01 11:28N 45°13' E 012°16'0 0.0
2016-Feb-01 10:31N 45°13' E 012°16'0 0.0
2016-Feb-01 09:31N 45°13' E 012°16'0 0.0
2016-Feb-01 08:31N 45°13' E 012°16'0 0.0
2016-Feb-01 07:31N 45°13' E 012°16'0 0.0
2016-Feb-01 06:31N 45°13' E 012°16'0 0.0
2016-Feb-01 05:28N 45°13' E 012°16'0 0.0
2016-Feb-01 04:31N 45°13' E 012°16'0 0.0
2016-Feb-01 03:31N 45°13' E 012°16'0 0.0
2016-Feb-01 02:31N 45°13' E 012°16'0 0.0
2016-Feb-01 01:31N 45°13' E 012°16'0 0.0
2016-Feb-01 00:31N 45°13' E 012°16'0 0.0
2016-Jan-31 23:31N 45°13' E 012°16'0 0.0
2016-Jan-31 22:25N 45°13' E 012°16'0 0.0
2016-Jan-31 21:31N 45°13' E 012°16'0 0.0
2016-Jan-31 20:31N 45°13' E 012°16'0 0.0
2016-Jan-31 19:31N 45°13' E 012°16'0 0.0
2016-Jan-31 18:31N 45°13' E 012°16'0 0.0
2016-Jan-31 17:31N 45°13' E 012°16'0 0.0
2016-Jan-31 16:31N 45°13' E 012°16'0 0.0
2016-Jan-31 15:31N 45°13' E 012°16'0 0.0
2016-Jan-31 14:31N 45°13' E 012°16'0 0.0
2016-Jan-31 13:22N 45°13' E 012°16'0 0.0
2016-Jan-31 12:31N 45°13' E 012°16'0 0.0
2016-Jan-31 11:28N 45°13' E 012°16'0 0.0
2016-Jan-31 10:31N 45°13' E 012°16'0 0.0
2016-Jan-31 09:31N 45°13' E 012°16'0 0.0
2016-Jan-30 22:16N 45°13' E 012°16'0 0.0
2016-Jan-30 21:31N 45°13' E 012°16'0 0.0
2016-Jan-30 20:31N 45°13' E 012°16'0 0.0
2016-Jan-30 19:31N 45°13' E 012°16'0 0.0
2016-Jan-30 18:31N 45°13' E 012°16'0 0.0
2016-Jan-30 17:31N 45°13' E 012°16'0 0.0
2016-Jan-30 16:31N 45°13' E 012°16'0 0.0
2016-Jan-30 15:28N 45°13' E 012°16'0 0.0
2016-Jan-30 14:31N 45°13' E 012°16'0 0.0
2016-Jan-30 13:31N 45°13' E 012°16'0 0.0
2016-Jan-30 12:31N 45°13' E 012°16'0 0.0
2016-Jan-30 11:31N 45°13' E 012°16'0 0.0
2016-Jan-30 10:25N 45°13' E 012°16'0 0.0
2016-Jan-30 09:31N 45°13' E 012°16'0 0.0
2016-Jan-30 08:31N 45°13' E 012°16'0 0.0
2016-Jan-30 07:31N 45°13' E 012°16'0 0.0
2016-Jan-30 06:31N 45°13' E 012°16'0 0.0
2016-Jan-30 05:28N 45°13' E 012°16'0 0.0
2016-Jan-30 04:31N 45°13' E 012°16'0 0.0
2016-Jan-30 03:31N 45°13' E 012°16'0 0.0
2016-Jan-30 02:31N 45°13' E 012°16'0 0.0
2016-Jan-30 01:31N 45°13' E 012°16'0 0.0
2016-Jan-30 00:28N 45°13' E 012°16'0 0.0
2016-Jan-29 23:25N 45°13' E 012°16'0 0.0
2016-Jan-29 22:31N 45°13' E 012°16'0 0.0
2016-Jan-29 21:31N 45°13' E 012°16'0 0.0
2016-Jan-29 20:31N 45°13' E 012°16'0 0.0
2016-Jan-29 19:28N 45°13' E 012°16'0 0.0
2016-Jan-29 18:31N 45°13' E 012°16'0 0.0
2016-Jan-29 17:31N 45°13' E 012°16'0 0.0
2016-Jan-29 16:31N 45°13' E 012°16'3 2.7
2016-Jan-29 15:33N 45°14' E 012°19'3 2.7
2016-Jan-29 14:28N 45°15' E 012°23'0 0.0
2016-Jan-29 13:31N 45°15' E 012°23'0 0.0
2016-Jan-29 12:31N 45°15' E 012°23'0 0.0
2016-Jan-29 11:31N 45°15' E 012°23'0 0.0
2016-Jan-29 10:31N 45°15' E 012°23'0 0.0
2016-Jan-29 09:31N 45°15' E 012°23'0 0.0
2016-Jan-29 08:28N 45°15' E 012°23'0 0.0
2016-Jan-29 07:31N 45°15' E 012°23'0 0.0
2016-Jan-29 06:31N 45°15' E 012°23'0 0.0
2016-Jan-29 05:31N 45°15' E 012°23'0 0.0
2016-Jan-29 04:31N 45°15' E 012°23'0 0.0
2016-Jan-29 03:28N 45°15' E 012°23'0 0.0
2016-Jan-29 02:28N 45°15' E 012°23'  

Dump ship's entire track history